createdAt,value
2023-05-13T00:01:09.286Z,8.50
2023-05-13T00:03:36.543Z,6.67
2023-05-13T00:06:03.319Z,7.97
2023-05-13T00:08:30.099Z,6.97
2023-05-13T00:10:56.583Z,7.80
2023-05-13T00:13:23.289Z,6.50
2023-05-13T00:15:49.749Z,6.80
2023-05-13T00:18:16.663Z,8.37
2023-05-13T00:20:43.088Z,9.87
2023-05-13T00:23:09.953Z,8.70
2023-05-13T00:25:37.168Z,8.53
2023-05-13T00:28:04.779Z,9.93
2023-05-13T00:30:31.529Z,6.77
2023-05-13T00:32:58.546Z,8.80
2023-05-13T00:35:25.094Z,5.90
2023-05-13T00:37:52.058Z,10.20
2023-05-13T00:40:24.307Z,12.53
2023-05-13T00:42:51.706Z,8.83
2023-05-13T00:45:19.004Z,10.47
2023-05-13T00:47:45.940Z,7.27
2023-05-13T00:50:14.174Z,7.90
2023-05-13T00:52:42.222Z,7.70
2023-05-13T00:55:12.156Z,7.00
2023-05-13T00:57:40.293Z,6.90
2023-05-13T01:00:07.899Z,8.30
2023-05-13T01:03:08.748Z,9.03
2023-05-13T01:05:44.380Z,6.87
2023-05-13T01:08:32.114Z,6.63
2023-05-13T01:11:03.946Z,7.83
2023-05-13T01:13:42.929Z,7.00
2023-05-13T01:16:27.903Z,7.10
2023-05-13T01:18:58.716Z,6.97
2023-05-13T01:21:29.611Z,8.83
2023-05-13T01:23:56.295Z,8.70
2023-05-13T01:26:25.269Z,7.37
2023-05-13T01:28:52.736Z,7.40
2023-05-13T01:31:21.811Z,8.77
2023-05-13T01:33:49.401Z,6.67
2023-05-13T01:36:17.270Z,6.87
2023-05-13T01:38:45.004Z,7.73
2023-05-13T01:41:11.951Z,6.80
2023-05-13T01:43:38.461Z,7.20
2023-05-13T01:46:12.314Z,7.10
2023-05-13T01:48:39.151Z,7.60
2023-05-13T01:51:05.943Z,7.90
2023-05-13T01:53:32.479Z,7.77
2023-05-13T01:55:59.145Z,8.37
2023-05-13T01:58:25.933Z,9.47
2023-05-13T02:00:52.370Z,12.20
2023-05-13T02:03:19.220Z,9.30
2023-05-13T02:05:47.419Z,9.50
2023-05-13T02:08:14.156Z,7.80
2023-05-13T02:10:40.785Z,7.40
2023-05-13T02:13:07.381Z,8.53
2023-05-13T02:15:33.781Z,8.83
2023-05-13T02:18:00.491Z,14.30
2023-05-13T02:20:28.083Z,8.00
2023-05-13T02:22:55.125Z,7.20
2023-05-13T02:25:21.557Z,7.97
2023-05-13T02:27:48.261Z,6.90
2023-05-13T02:30:14.783Z,7.53
2023-05-13T02:32:43.874Z,7.00
2023-05-13T02:35:10.930Z,8.20
2023-05-13T02:37:37.473Z,7.83
2023-05-13T02:40:04.976Z,7.30
2023-05-13T02:42:31.455Z,8.23
2023-05-13T02:44:58.631Z,8.40
2023-05-13T02:47:26.318Z,7.43
2023-05-13T02:49:54.939Z,7.63
2023-05-13T02:52:22.211Z,16.00
2023-05-13T02:54:49.136Z,6.63
2023-05-13T02:57:16.224Z,7.03
2023-05-13T02:59:43.386Z,8.60
2023-05-13T03:02:11.004Z,11.47
2023-05-13T03:04:37.918Z,8.13
2023-05-13T03:07:04.566Z,8.20
2023-05-13T03:09:31.610Z,8.57
2023-05-13T03:11:58.415Z,10.60
2023-05-13T03:14:25.245Z,6.83
2023-05-13T03:16:51.838Z,11.17
2023-05-13T03:19:18.527Z,11.43
2023-05-13T03:21:45.475Z,11.00
2023-05-13T03:24:15.031Z,8.33
2023-05-13T03:26:41.490Z,7.67
2023-05-13T03:29:08.718Z,11.67
2023-05-13T03:31:37.103Z,9.10
2023-05-13T03:34:04.904Z,10.23
2023-05-13T03:36:32.577Z,12.00
2023-05-13T03:38:59.647Z,9.00
2023-05-13T03:41:28.232Z,10.10
2023-05-13T03:43:57.296Z,9.33
2023-05-13T03:46:24.033Z,10.83
2023-05-13T03:48:50.664Z,10.83
2023-05-13T03:51:17.704Z,8.03
2023-05-13T03:53:44.762Z,9.23
2023-05-13T03:56:11.287Z,10.93
2023-05-13T03:58:38.377Z,9.23
2023-05-13T04:01:05.409Z,9.83
2023-05-13T04:03:32.995Z,14.83
2023-05-13T04:05:59.991Z,9.23
2023-05-13T04:08:27.032Z,13.63
2023-05-13T04:10:54.497Z,9.27
2023-05-13T04:13:21.160Z,9.10
2023-05-13T04:15:48.378Z,11.50
2023-05-13T04:18:14.798Z,8.47
2023-05-13T04:20:41.520Z,10.37
2023-05-13T04:23:08.204Z,11.20
2023-05-13T04:25:36.516Z,8.50
2023-05-13T04:28:03.705Z,12.70
2023-05-13T04:30:38.779Z,10.13
2023-05-13T04:33:05.443Z,12.37
2023-05-13T04:35:33.295Z,12.40
2023-05-13T04:38:02.040Z,14.03
2023-05-13T04:40:29.346Z,10.93
2023-05-13T04:42:59.408Z,12.90
2023-05-13T04:45:31.682Z,10.00
2023-05-13T04:47:58.968Z,11.90
2023-05-13T04:50:25.958Z,11.23
2023-05-13T04:52:54.879Z,14.00
2023-05-13T04:55:22.883Z,13.23
2023-05-13T04:57:49.882Z,13.27
2023-05-13T05:00:17.178Z,9.83
2023-05-13T05:02:45.756Z,12.77
2023-05-13T05:05:12.236Z,12.70
2023-05-13T05:07:40.573Z,12.00
2023-05-13T05:10:08.510Z,11.67
2023-05-13T05:12:38.283Z,10.10
2023-05-13T05:15:06.120Z,11.50
2023-05-13T05:17:33.931Z,13.83
2023-05-13T05:20:02.327Z,13.03
2023-05-13T05:22:29.255Z,10.73
2023-05-13T05:24:56.548Z,10.90
2023-05-13T05:27:24.758Z,12.03
2023-05-13T05:29:51.190Z,12.33
2023-05-13T05:32:17.995Z,11.60
2023-05-13T05:34:44.465Z,11.50
2023-05-13T05:37:11.005Z,10.80
2023-05-13T05:39:38.700Z,10.70
2023-05-13T05:42:05.684Z,11.13
2023-05-13T05:44:32.309Z,15.00
2023-05-13T05:46:58.740Z,12.17
2023-05-13T05:49:26.069Z,13.27
2023-05-13T05:51:52.611Z,12.83
2023-05-13T05:54:20.478Z,11.97
2023-05-13T05:56:47.994Z,19.30
2023-05-13T05:59:14.812Z,13.63
2023-05-13T06:01:41.371Z,10.90
2023-05-13T06:04:07.985Z,12.70
2023-05-13T06:06:34.945Z,10.00
2023-05-13T06:09:01.786Z,11.33
2023-05-13T06:11:28.255Z,12.80
2023-05-13T06:13:54.827Z,9.93
2023-05-13T06:16:21.350Z,11.13
2023-05-13T06:18:48.135Z,14.23
2023-05-13T06:21:14.878Z,13.67
2023-05-13T06:23:42.154Z,16.20
2023-05-13T06:26:08.576Z,10.73
2023-05-13T06:28:35.398Z,13.67
2023-05-13T06:31:02.071Z,8.73
2023-05-13T06:33:29.481Z,10.30
2023-05-13T06:35:55.978Z,12.60
2023-05-13T06:38:24.061Z,12.70
2023-05-13T06:40:55.488Z,9.40
2023-05-13T06:43:28.646Z,8.70
2023-05-13T06:45:58.119Z,11.03
2023-05-13T06:48:26.269Z,8.77
2023-05-13T06:50:52.745Z,11.10
2023-05-13T06:53:19.412Z,9.40
2023-05-13T06:55:46.109Z,7.83
2023-05-13T06:58:12.633Z,9.50
2023-05-13T07:00:40.516Z,9.63
2023-05-13T07:03:08.066Z,8.40
2023-05-13T07:05:35.162Z,7.80
2023-05-13T07:08:06.522Z,9.10
2023-05-13T07:10:33.959Z,8.30
2023-05-13T07:13:02.220Z,7.00
2023-05-13T07:15:28.851Z,8.50
2023-05-13T07:17:55.624Z,7.97
2023-05-13T07:20:23.176Z,7.30
2023-05-13T07:22:50.181Z,7.20
2023-05-13T07:25:17.614Z,8.87
2023-05-13T07:27:44.899Z,6.70
2023-05-13T07:30:12.455Z,8.00
2023-05-13T07:32:39.839Z,7.40
2023-05-13T07:35:07.576Z,7.73
2023-05-13T07:37:34.164Z,6.80
2023-05-13T07:40:00.595Z,7.03
2023-05-13T07:42:28.295Z,7.50
2023-05-13T07:44:54.715Z,9.70
2023-05-13T07:47:21.515Z,7.43
2023-05-13T07:49:49.096Z,7.57
2023-05-13T07:52:15.973Z,6.20
2023-05-13T07:54:42.457Z,7.20
2023-05-13T07:57:08.963Z,8.17
2023-05-13T07:59:35.383Z,6.90
2023-05-13T08:02:02.330Z,8.23
2023-05-13T08:04:28.777Z,5.77
2023-05-13T08:06:56.151Z,5.53
2023-05-13T08:09:22.584Z,9.27
2023-05-13T08:11:49.215Z,6.40
2023-05-13T08:14:15.755Z,5.87
2023-05-13T08:16:42.369Z,8.63
2023-05-13T08:19:09.673Z,5.27
2023-05-13T08:21:36.396Z,5.07
2023-05-13T08:24:02.932Z,5.73
2023-05-13T08:26:29.515Z,9.93
2023-05-13T08:28:57.133Z,7.93
2023-05-13T08:31:25.181Z,5.57
2023-05-13T08:33:53.219Z,9.87
2023-05-13T08:36:20.606Z,6.53
2023-05-13T08:38:47.360Z,5.00
2023-05-13T08:41:14.962Z,4.80
2023-05-13T08:43:44.405Z,6.23
2023-05-13T08:46:12.451Z,5.50
2023-05-13T08:48:40.784Z,5.50
2023-05-13T08:51:07.900Z,5.50
2023-05-13T08:53:35.386Z,4.93
2023-05-13T08:56:02.539Z,4.60
2023-05-13T08:58:29.141Z,11.30
2023-05-13T09:00:56.550Z,4.30
2023-05-13T09:03:23.103Z,5.20
2023-05-13T09:05:49.635Z,5.33
2023-05-13T09:08:16.294Z,3.90
2023-05-13T09:10:42.967Z,6.80
2023-05-13T09:13:11.916Z,7.53
2023-05-13T09:15:42.753Z,9.43
2023-05-13T09:18:09.408Z,9.50
2023-05-13T09:20:36.580Z,4.80
2023-05-13T09:23:08.220Z,4.10
2023-05-13T09:25:36.512Z,10.73
2023-05-13T09:28:04.867Z,4.67
2023-05-13T09:30:43.284Z,5.43
2023-05-13T09:33:14.120Z,4.33
2023-05-13T09:35:42.402Z,8.40
2023-05-13T09:38:24.813Z,4.17
2023-05-13T09:40:58.523Z,5.53
2023-05-13T09:43:27.223Z,5.53
2023-05-13T09:46:00.737Z,4.20
2023-05-13T09:48:29.968Z,5.00
2023-05-13T09:50:58.137Z,4.43
2023-05-13T09:53:26.354Z,5.73
2023-05-13T09:55:55.604Z,5.90
2023-05-13T09:58:26.356Z,4.13
2023-05-13T10:00:52.971Z,4.13
2023-05-13T10:03:19.667Z,4.60
2023-05-13T10:05:46.439Z,8.60
2023-05-13T10:08:15.455Z,4.83
2023-05-13T10:10:45.609Z,4.73
2023-05-13T10:13:18.865Z,5.50
2023-05-13T10:15:49.995Z,4.17
2023-05-13T10:18:17.653Z,5.53
2023-05-13T10:20:44.750Z,6.60
2023-05-13T10:23:12.028Z,4.70
2023-05-13T10:25:38.829Z,5.03
2023-05-13T10:28:05.879Z,8.80
2023-05-13T10:30:33.646Z,6.80
2023-05-13T10:33:01.402Z,4.40
2023-05-13T10:35:33.929Z,4.90
2023-05-13T10:38:24.006Z,5.33
2023-05-13T10:41:23.905Z,5.30
2023-05-13T10:43:57.613Z,5.70
2023-05-13T10:46:24.168Z,7.23
2023-05-13T10:48:55.925Z,4.77
2023-05-13T10:51:25.862Z,6.43
2023-05-13T10:53:58.419Z,4.87
2023-05-13T10:56:28.287Z,4.73
2023-05-13T10:59:05.608Z,7.60
2023-05-13T11:01:43.893Z,4.17
2023-05-13T11:04:18.445Z,4.50
2023-05-13T11:06:46.900Z,5.73
2023-05-13T11:09:15.961Z,3.90
2023-05-13T11:11:47.407Z,6.50
2023-05-13T11:14:17.669Z,6.77
2023-05-13T11:17:02.214Z,4.20
2023-05-13T11:19:34.954Z,5.17
2023-05-13T11:22:12.546Z,8.47
2023-05-13T11:24:40.474Z,7.30
2023-05-13T11:27:20.968Z,4.83
2023-05-13T11:29:52.357Z,4.40
2023-05-13T11:32:53.322Z,3.50
2023-05-13T11:35:25.145Z,5.17
2023-05-13T11:37:51.806Z,8.47
2023-05-13T11:40:23.538Z,3.93
2023-05-13T11:42:50.639Z,5.03
2023-05-13T11:45:18.506Z,5.10
2023-05-13T11:47:45.160Z,6.20
2023-05-13T11:50:22.104Z,6.20
2023-05-13T11:52:57.497Z,5.93
2023-05-13T11:55:37.848Z,4.30
2023-05-13T11:58:04.329Z,3.83
2023-05-13T12:00:33.362Z,4.33
2023-05-13T12:03:01.448Z,9.50
2023-05-13T12:05:28.684Z,7.40
2023-05-13T12:07:58.911Z,7.73
2023-05-13T12:10:26.310Z,3.60
2023-05-13T12:12:53.358Z,3.50
2023-05-13T12:15:22.112Z,6.10
2023-05-13T12:17:49.507Z,4.17
2023-05-13T12:20:21.026Z,3.70
2023-05-13T12:22:48.094Z,3.10
2023-05-13T12:25:42.661Z,5.03
2023-05-13T12:28:25.245Z,5.27
2023-05-13T12:30:59.669Z,3.63
2023-05-13T12:33:28.860Z,3.83
2023-05-13T12:36:15.132Z,4.00
2023-05-13T12:38:59.607Z,3.17
2023-05-13T12:41:35.089Z,4.20
2023-05-13T12:44:08.868Z,4.77
2023-05-13T12:46:36.206Z,4.47
2023-05-13T12:49:04.347Z,3.90
2023-05-13T12:51:31.634Z,4.10
2023-05-13T12:53:58.258Z,4.27
2023-05-13T12:56:25.720Z,4.23
2023-05-13T12:58:55.849Z,4.30
2023-05-13T13:01:22.609Z,4.00
2023-05-13T13:03:49.358Z,3.87
2023-05-13T13:06:16.507Z,4.80
2023-05-13T13:08:42.934Z,3.90
2023-05-13T13:11:09.811Z,4.60
2023-05-13T13:13:38.709Z,4.83
2023-05-13T13:16:06.415Z,4.77
2023-05-13T13:18:33.093Z,6.33
2023-05-13T13:20:59.726Z,4.53
2023-05-13T13:23:26.138Z,8.03
2023-05-13T13:25:52.827Z,8.53
2023-05-13T13:28:19.479Z,4.70
2023-05-13T13:30:48.547Z,4.50
2023-05-13T13:33:16.197Z,5.50
2023-05-13T13:35:43.872Z,4.93
2023-05-13T13:38:11.074Z,3.90
2023-05-13T13:40:37.488Z,3.40
2023-05-13T13:43:05.672Z,6.63
2023-05-13T13:45:32.192Z,4.70
2023-05-13T13:47:59.490Z,5.17
2023-05-13T13:50:26.643Z,5.30
2023-05-13T13:52:53.260Z,8.57
2023-05-13T13:55:21.054Z,4.27
2023-05-13T13:57:47.753Z,4.30
2023-05-13T14:00:15.651Z,4.23
2023-05-13T14:02:43.602Z,3.87
2023-05-13T14:05:11.590Z,3.40
2023-05-13T14:07:38.187Z,5.43
2023-05-13T14:10:06.312Z,3.90
2023-05-13T14:12:33.719Z,3.60
2023-05-13T14:15:00.383Z,3.40
2023-05-13T14:17:27.035Z,3.10
2023-05-13T14:19:55.117Z,7.70
2023-05-13T14:22:23.681Z,4.33
2023-05-13T14:24:52.489Z,12.53
2023-05-13T14:27:19.684Z,5.93
2023-05-13T14:29:47.684Z,3.70
2023-05-13T14:32:14.825Z,4.53
2023-05-13T14:34:41.413Z,6.07
2023-05-13T14:37:07.967Z,4.10
2023-05-13T14:39:34.400Z,4.13
2023-05-13T14:42:01.661Z,4.17
2023-05-13T14:44:28.171Z,4.90
2023-05-13T14:46:54.953Z,3.83
2023-05-13T14:49:21.546Z,4.03
2023-05-13T14:51:48.014Z,4.77
2023-05-13T14:54:14.640Z,3.90
2023-05-13T14:56:41.439Z,3.60
2023-05-13T14:59:08.317Z,3.50
2023-05-13T15:01:34.781Z,4.00
2023-05-13T15:04:01.323Z,3.13
2023-05-13T15:06:29.045Z,9.70
2023-05-13T15:08:56.325Z,3.40
2023-05-13T15:11:23.240Z,3.60
2023-05-13T15:13:49.775Z,3.37
2023-05-13T15:16:16.312Z,3.73
2023-05-13T15:18:43.167Z,6.23
2023-05-13T15:21:09.650Z,3.13
2023-05-13T15:23:36.283Z,5.73
2023-05-13T15:26:02.803Z,3.63
2023-05-13T15:28:29.285Z,4.00
2023-05-13T15:30:56.160Z,3.83
2023-05-13T15:33:22.776Z,3.67
2023-05-13T15:35:49.317Z,4.20
2023-05-13T15:38:15.877Z,4.13
2023-05-13T15:40:42.330Z,3.73
2023-05-13T15:43:08.764Z,2.97
2023-05-13T15:45:35.516Z,4.30
2023-05-13T15:48:02.101Z,3.10
2023-05-13T15:50:28.995Z,3.20
2023-05-13T15:52:55.551Z,3.43
2023-05-13T15:55:22.148Z,3.57
2023-05-13T15:57:50.175Z,8.73
2023-05-13T16:00:17.726Z,7.33
2023-05-13T16:02:44.346Z,3.57
2023-05-13T16:05:15.688Z,3.43
2023-05-13T16:07:42.577Z,3.07
2023-05-13T16:10:09.381Z,3.27
2023-05-13T16:12:36.146Z,5.60
2023-05-13T16:15:03.985Z,4.23
2023-05-13T16:17:31.549Z,5.13
2023-05-13T16:19:58.077Z,3.37
2023-05-13T16:22:37.655Z,3.97
2023-05-13T16:25:06.144Z,3.50
2023-05-13T16:27:33.946Z,4.87
2023-05-13T16:30:02.394Z,3.80
2023-05-13T16:32:29.362Z,4.80
2023-05-13T16:34:56.672Z,3.53
2023-05-13T16:37:23.103Z,4.10
2023-05-13T16:39:49.656Z,4.70
2023-05-13T16:42:16.112Z,6.30
2023-05-13T16:44:42.900Z,5.20
2023-05-13T16:47:09.333Z,3.80
2023-05-13T16:49:36.642Z,3.20
2023-05-13T16:52:04.028Z,2.90
2023-05-13T16:54:30.989Z,6.30
2023-05-13T16:56:58.070Z,4.23
2023-05-13T16:59:27.108Z,8.80
2023-05-13T17:01:53.765Z,5.20
2023-05-13T17:04:21.123Z,3.40
2023-05-13T17:06:47.695Z,3.30
2023-05-13T17:09:14.170Z,5.83
2023-05-13T17:11:40.610Z,5.80
2023-05-13T17:14:07.198Z,19.63
2023-05-13T17:16:33.690Z,4.20
2023-05-13T17:19:00.319Z,3.57
2023-05-13T17:21:26.864Z,4.27
2023-05-13T17:23:53.538Z,3.37
2023-05-13T17:26:21.801Z,3.20
2023-05-13T17:28:49.744Z,4.93
2023-05-13T17:31:16.672Z,6.43
2023-05-13T17:33:43.698Z,5.03
2023-05-13T17:36:10.729Z,4.33
2023-05-13T17:38:37.877Z,3.43
2023-05-13T17:41:04.741Z,3.40
2023-05-13T17:43:31.294Z,4.63
2023-05-13T17:45:57.776Z,6.10
2023-05-13T17:48:24.347Z,11.47
2023-05-13T17:50:51.621Z,3.73
2023-05-13T17:53:18.833Z,5.13
2023-05-13T17:55:45.355Z,3.93
2023-05-13T17:58:12.312Z,4.43
2023-05-13T18:00:38.821Z,3.57
2023-05-13T18:03:05.357Z,4.23
2023-05-13T18:05:31.936Z,5.30
2023-05-13T18:07:59.077Z,7.37
2023-05-13T18:10:27.321Z,5.73
2023-05-13T18:12:53.771Z,3.60
2023-05-13T18:15:20.326Z,3.87
2023-05-13T18:17:47.358Z,4.13
2023-05-13T18:20:13.873Z,7.70
2023-05-13T18:22:40.385Z,7.97
2023-05-13T18:25:07.684Z,4.00
2023-05-13T18:27:34.233Z,5.10
2023-05-13T18:30:00.847Z,7.30
2023-05-13T18:32:27.370Z,4.30
2023-05-13T18:34:54.030Z,5.07
2023-05-13T18:37:20.479Z,7.50
2023-05-13T18:39:47.043Z,7.70
2023-05-13T18:42:13.521Z,5.30
2023-05-13T18:44:40.147Z,9.87
2023-05-13T18:47:07.090Z,6.37
2023-05-13T18:49:33.736Z,4.70
2023-05-13T18:52:00.190Z,4.00
2023-05-13T18:54:29.136Z,4.10
2023-05-13T18:56:58.738Z,4.70
2023-05-13T18:59:25.310Z,6.73
2023-05-13T19:01:51.966Z,6.20
2023-05-13T19:04:18.552Z,4.23
2023-05-13T19:06:45.133Z,3.80
2023-05-13T19:09:11.696Z,7.90
2023-05-13T19:11:38.223Z,6.93
2023-05-13T19:14:04.914Z,9.20
2023-05-13T19:16:31.532Z,5.07
2023-05-13T19:18:58.131Z,4.90
2023-05-13T19:21:24.563Z,6.10
2023-05-13T19:23:51.305Z,5.03
2023-05-13T19:26:17.839Z,4.13
2023-05-13T19:28:44.886Z,4.73
2023-05-13T19:31:11.497Z,4.97
2023-05-13T19:33:38.238Z,6.40
2023-05-13T19:36:05.899Z,5.20
2023-05-13T19:38:33.071Z,5.10
2023-05-13T19:40:59.561Z,6.13
2023-05-13T19:43:26.197Z,3.77
2023-05-13T19:45:55.329Z,4.53
2023-05-13T19:48:21.966Z,5.87
2023-05-13T19:50:48.385Z,4.10
2023-05-13T19:53:15.337Z,7.60
2023-05-13T19:55:41.765Z,5.70
2023-05-13T19:58:08.473Z,6.17
2023-05-13T20:00:34.879Z,6.13
2023-05-13T20:03:01.606Z,4.37
2023-05-13T20:05:28.137Z,4.60
2023-05-13T20:07:54.598Z,5.50
2023-05-13T20:10:21.176Z,5.80
2023-05-13T20:12:47.828Z,7.17
2023-05-13T20:15:15.274Z,4.67
2023-05-13T20:17:42.843Z,4.27
2023-05-13T20:20:09.738Z,6.90
2023-05-13T20:22:36.497Z,4.40
2023-05-13T20:25:02.931Z,5.53
2023-05-13T20:27:29.404Z,4.03
2023-05-13T20:29:57.014Z,4.50
2023-05-13T20:32:25.033Z,5.47
2023-05-13T20:34:52.495Z,3.73
2023-05-13T20:37:20.106Z,10.00
2023-05-13T20:39:48.321Z,4.23
2023-05-13T20:42:14.726Z,4.90
2023-05-13T20:44:41.553Z,6.57
2023-05-13T20:47:08.192Z,4.40
2023-05-13T20:49:34.774Z,9.17
2023-05-13T20:52:06.342Z,4.90
2023-05-13T20:54:34.284Z,7.00
2023-05-13T20:57:02.888Z,4.60
2023-05-13T20:59:30.099Z,4.57
2023-05-13T21:01:56.702Z,6.53
2023-05-13T21:04:23.438Z,6.87
2023-05-13T21:06:49.864Z,6.23
2023-05-13T21:09:16.560Z,4.90
2023-05-13T21:11:43.291Z,5.13
2023-05-13T21:14:09.827Z,6.77
2023-05-13T21:16:36.305Z,6.77
2023-05-13T21:19:03.005Z,5.53
2023-05-13T21:21:29.555Z,4.90
2023-05-13T21:23:56.132Z,5.00
2023-05-13T21:26:24.472Z,6.43
2023-05-13T21:28:51.185Z,5.00
2023-05-13T21:31:17.625Z,8.20
2023-05-13T21:33:44.116Z,4.80
2023-05-13T21:36:10.517Z,4.50
2023-05-13T21:38:37.142Z,5.80
2023-05-13T21:41:03.629Z,5.70
2023-05-13T21:43:30.266Z,4.40
2023-05-13T21:45:56.703Z,4.47
2023-05-13T21:48:23.309Z,4.80
2023-05-13T21:50:49.749Z,4.73
2023-05-13T21:53:16.434Z,4.87
2023-05-13T21:55:43.943Z,8.13
2023-05-13T21:58:10.583Z,5.50
2023-05-13T22:00:37.158Z,5.17
2023-05-13T22:03:06.099Z,5.23
2023-05-13T22:05:32.715Z,5.47
2023-05-13T22:08:00.159Z,9.57
2023-05-13T22:10:26.800Z,8.23
2023-05-13T22:12:53.587Z,6.60
2023-05-13T22:15:19.980Z,5.53
2023-05-13T22:17:49.096Z,6.40
2023-05-13T22:20:16.893Z,6.50
2023-05-13T22:22:43.564Z,5.70
2023-05-13T22:25:10.023Z,5.70
2023-05-13T22:27:36.493Z,5.33
2023-05-13T22:30:03.087Z,5.77
2023-05-13T22:32:29.869Z,6.37
2023-05-13T22:34:56.376Z,4.73
2023-05-13T22:37:22.981Z,6.93
2023-05-13T22:39:49.420Z,5.57
2023-05-13T22:42:15.991Z,6.77
2023-05-13T22:44:42.534Z,6.63
2023-05-13T22:47:08.980Z,6.23
2023-05-13T22:49:35.476Z,7.00
2023-05-13T22:52:01.920Z,6.53
2023-05-13T22:54:28.560Z,7.87
2023-05-13T22:56:55.065Z,5.60
2023-05-13T22:59:21.698Z,5.93
2023-05-13T23:01:48.201Z,7.17
2023-05-13T23:04:14.924Z,6.60
2023-05-13T23:06:41.496Z,7.20
2023-05-13T23:09:08.025Z,6.27
2023-05-13T23:11:36.039Z,7.97
2023-05-13T23:14:02.758Z,6.93
2023-05-13T23:16:29.237Z,7.30
2023-05-13T23:18:56.057Z,11.47
2023-05-13T23:21:22.571Z,6.43
2023-05-13T23:23:50.170Z,7.23
2023-05-13T23:26:16.619Z,7.90
2023-05-13T23:28:43.366Z,7.37
2023-05-13T23:31:09.790Z,7.63
2023-05-13T23:33:36.420Z,6.93
2023-05-13T23:36:02.827Z,7.83
2023-05-13T23:38:29.422Z,7.53
2023-05-13T23:40:55.915Z,6.87
2023-05-13T23:43:22.638Z,7.33
2023-05-13T23:45:49.091Z,7.40
2023-05-13T23:48:15.701Z,8.27
2023-05-13T23:50:42.279Z,8.13
2023-05-13T23:53:08.935Z,7.03
2023-05-13T23:55:35.719Z,11.77
2023-05-13T23:58:02.384Z,7.50
